Terminal Aerodrome Forecast
Issued by NWS

Home | Current Version | Previous Version | Text Only | Print | Product List | Glossary On
Versions: 1 2 3 4 5 6 7 8 9 10 11 12 13 14 15 16 17 18 19 20 21
000
FTUS41 KBGM 262300
TAFITH
TAF
KITH 262320Z 2700/2724 35006KT 3/4SM -SN OVC004
      TEMPO 2704/2706 4SM -SN OVC015
     FM270600 32006KT 4SM -SHSN OVC025
     FM271700 31006KT P6SM OVC035=

USA.gov is the U.S. government's official web portal to all federal, state and local government web resources and services.